Time;durP1;ratioP1;P1;durP2;ratioP2;P2;SDS_P1;SDS_P2;PMS_P1;PMS_P2;Temp;Humidity;BMP_temperature;BMP_pressure;BME280_temperature;BME280_humidity;BME280_pressure;Samples;Min_cycle;Max_cycle;Signal;HPM_P1;HPM_P2
2023/12/22 00:01:20;;;;;;;3.92;0.88;;;8.50;99.90;;;;;;4973040;28;20027;-89
2023/12/22 00:03:46;;;;;;;4.63;0.88;;;8.50;99.90;;;;;;4964156;28;20031;-89
2023/12/22 00:06:12;;;;;;;5.30;0.90;;;8.50;99.90;;;;;;4957705;28;20026;-89
2023/12/22 00:08:38;;;;;;;0.88;0.75;;;8.50;99.90;;;;;;4954021;28;20084;-89
2023/12/22 00:11:03;;;;;;;5.80;0.70;;;8.50;99.90;;;;;;4955870;28;20117;-88
2023/12/22 00:13:29;;;;;;;2.17;0.73;;;8.50;99.90;;;;;;4973130;28;20034;-88
2023/12/22 00:15:55;;;;;;;0.65;0.65;;;8.50;99.90;;;;;;4973180;28;20109;-88
2023/12/22 00:18:20;;;;;;;0.93;0.85;;;8.50;99.90;;;;;;4973266;28;20477;-88
2023/12/22 00:20:46;;;;;;;0.73;0.50;;;8.50;99.90;;;;;;4955619;28;20106;-89
2023/12/22 00:23:11;;;;;;;0.52;0.52;;;8.50;99.90;;;;;;4955629;28;20022;-89
2023/12/22 00:25:37;;;;;;;0.50;0.50;;;8.50;99.90;;;;;;4962102;28;20022;-88
2023/12/22 00:28:03;;;;;;;1.75;0.50;;;8.50;99.90;;;;;;4958053;28;20019;-88
2023/12/22 00:30:28;;;;;;;1.30;0.90;;;8.50;99.90;;;;;;4954580;28;20031;-89
2023/12/22 00:32:54;;;;;;;1.35;0.70;;;8.50;99.90;;;;;;4961384;28;20033;-86
2023/12/22 00:35:20;;;;;;;0.60;0.60;;;8.50;99.90;;;;;;4960010;28;20054;-89
2023/12/22 00:37:45;;;;;;;0.95;0.60;;;8.50;99.90;;;;;;4972662;28;20055;-88
2023/12/22 00:40:11;;;;;;;2.72;1.02;;;8.50;99.90;;;;;;4968670;28;20421;-88
2023/12/22 00:42:36;;;;;;;0.98;0.50;;;8.50;99.90;;;;;;4953071;28;20547;-89
2023/12/22 00:45:02;;;;;;;1.73;0.60;;;8.40;99.90;;;;;;4957167;28;20110;-87
2023/12/22 00:47:28;;;;;;;0.68;0.68;;;8.50;99.90;;;;;;4951491;28;20026;-88
2023/12/22 00:49:54;;;;;;;3.20;0.68;;;8.50;99.90;;;;;;4972952;28;20019;-88
2023/12/22 00:52:19;;;;;;;1.23;0.68;;;8.50;99.90;;;;;;4972932;28;20062;-87
2023/12/22 00:54:45;;;;;;;1.67;0.70;;;8.50;99.90;;;;;;4972352;28;20027;-88
2023/12/22 00:57:11;;;;;;;0.55;0.55;;;8.40;99.90;;;;;;4957738;28;20102;-88
2023/12/22 00:59:37;;;;;;;1.40;0.55;;;8.50;99.90;;;;;;4960071;28;20031;-89
2023/12/22 01:02:02;;;;;;;2.20;0.57;;;8.50;99.90;;;;;;4954922;28;20025;-87
2023/12/22 01:04:28;;;;;;;0.85;0.60;;;8.40;99.90;;;;;;4965551;28;20030;-88
2023/12/22 01:06:53;;;;;;;2.13;0.60;;;8.40;99.90;;;;;;4955425;28;20019;-89
2023/12/22 01:09:19;;;;;;;0.73;0.55;;;8.50;99.90;;;;;;4972664;28;20042;-88
2023/12/22 01:11:45;;;;;;;0.70;0.70;;;8.50;99.90;;;;;;4968659;28;20023;-87
2023/12/22 01:14:13;;;;;;;1.27;0.70;;;8.40;99.90;;;;;;4972376;28;20029;-89
2023/12/22 01:16:39;;;;;;;0.45;0.45;;;8.40;99.90;;;;;;4960853;28;20050;-86
2023/12/22 01:19:04;;;;;;;1.23;0.65;;;8.40;99.90;;;;;;4971223;28;20031;-86
2023/12/22 01:21:30;;;;;;;2.88;0.98;;;8.40;99.90;;;;;;4950847;28;20019;-89
2023/12/22 01:23:55;;;;;;;2.05;0.70;;;8.50;99.90;;;;;;4955078;28;20026;-88
2023/12/22 01:26:21;;;;;;;2.00;0.88;;;8.50;99.90;;;;;;4962115;28;20030;-87
2023/12/22 01:28:46;;;;;;;3.47;0.88;;;8.50;99.90;;;;;;4972319;28;20031;-88
2023/12/22 01:31:12;;;;;;;1.55;0.90;;;8.50;99.90;;;;;;4952797;28;20034;-89
2023/12/22 01:33:37;;;;;;;4.90;1.10;;;8.40;99.90;;;;;;4971992;28;20034;-88
2023/12/22 01:36:03;;;;;;;5.93;1.10;;;8.40;99.90;;;;;;4952474;28;20050;-89
2023/12/22 01:38:29;;;;;;;1.92;0.85;;;8.50;99.90;;;;;;4972028;28;20123;-90
2023/12/22 01:40:54;;;;;;;1.90;0.98;;;8.50;99.90;;;;;;4970907;28;20481;-89
2023/12/22 01:43:21;;;;;;;3.67;1.08;;;8.50;99.90;;;;;;4954933;28;20027;-89
2023/12/22 01:45:56;;;;;;;1.63;0.73;;;8.50;99.90;;;;;;4978547;28;20086;-89
2023/12/22 01:48:26;;;;;;;2.22;1.00;;;8.50;99.90;;;;;;4970293;28;20050;-88
2023/12/22 01:50:55;;;;;;;3.83;1.30;;;8.50;99.90;;;;;;4957468;28;20022;-89
2023/12/22 01:53:21;;;;;;;1.17;0.82;;;8.50;99.90;;;;;;4958904;28;20488;-89
2023/12/22 01:55:49;;;;;;;2.10;0.90;;;8.50;99.90;;;;;;4962729;28;20023;-89
2023/12/22 01:58:15;;;;;;;3.50;0.98;;;8.50;99.90;;;;;;4975495;28;20019;-88
2023/12/22 02:00:41;;;;;;;1.35;1.17;;;8.50;99.90;;;;;;4955321;28;20110;-89
2023/12/22 02:03:08;;;;;;;2.90;0.95;;;8.50;99.90;;;;;;4961221;28;20025;-87
2023/12/22 02:05:34;;;;;;;0.68;0.68;;;8.50;99.90;;;;;;4975336;28;20023;-88
2023/12/22 02:08:00;;;;;;;4.90;1.05;;;8.50;99.90;;;;;;4973902;28;20053;-89
2023/12/22 02:10:25;;;;;;;0.60;0.60;;;8.50;99.90;;;;;;4957715;28;20077;-87
2023/12/22 02:12:51;;;;;;;4.45;1.02;;;8.50;99.90;;;;;;4975178;28;20027;-88
2023/12/22 02:15:17;;;;;;;2.13;0.82;;;8.50;99.90;;;;;;4965514;28;20736;-88
2023/12/22 02:17:58;;;;;;;1.60;1.00;;;8.50;99.90;;;;;;4974336;28;20030;-88
2023/12/22 02:20:24;;;;;;;1.80;1.23;;;8.50;99.90;;;;;;4964782;28;20038;-88
2023/12/22 02:22:53;;;;;;;5.22;1.10;;;8.50;99.90;;;;;;4975269;28;20019;-89
2023/12/22 02:25:19;;;;;;;1.23;0.90;;;8.50;99.90;;;;;;4960084;28;20035;-87
2023/12/22 02:27:48;;;;;;;1.35;1.02;;;8.50;99.90;;;;;;4960591;28;20594;-86
2023/12/22 02:30:29;;;;;;;1.38;0.85;;;8.50;99.90;;;;;;4958817;28;20031;-88
2023/12/22 02:32:55;;;;;;;;;;;8.50;99.90;;;;;;4967448;28;20081;-87
2023/12/22 02:35:25;;;;;;;0.55;0.55;;;8.50;99.90;;;;;;4974964;28;19972;-88
2023/12/22 02:37:52;;;;;;;0.85;0.70;;;8.50;99.90;;;;;;4975044;28;20034;-89
2023/12/22 02:40:19;;;;;;;2.35;0.90;;;8.50;99.90;;;;;;4974600;28;20031;-88
2023/12/22 02:42:45;;;;;;;1.13;0.60;;;8.50;99.90;;;;;;4974602;28;20093;-87
2023/12/22 02:45:15;;;;;;;2.03;0.70;;;8.50;99.90;;;;;;4973003;28;20449;-88
2023/12/22 02:47:41;;;;;;;0.82;0.68;;;8.50;99.90;;;;;;4967153;28;20101;-88
2023/12/22 02:50:08;;;;;;;0.55;0.55;;;8.50;99.90;;;;;;4973433;28;20047;-87
2023/12/22 02:52:33;;;;;;;2.92;0.82;;;8.50;99.90;;;;;;4956885;28;20042;-88
2023/12/22 02:54:59;;;;;;;0.88;0.68;;;8.50;99.90;;;;;;4974732;28;20429;-90
2023/12/22 02:57:25;;;;;;;0.95;0.65;;;8.50;99.90;;;;;;4974514;28;20066;-88
2023/12/22 02:59:50;;;;;;;0.90;0.50;;;8.50;99.90;;;;;;4964839;28;20485;-89
2023/12/22 03:02:16;;;;;;;0.60;0.60;;;8.40;99.90;;;;;;4953412;28;20038;-86
2023/12/22 03:04:41;;;;;;;2.08;0.70;;;8.50;99.90;;;;;;4960392;28;20031;-89
2023/12/22 03:07:07;;;;;;;2.70;1.08;;;8.50;99.90;;;;;;4957106;28;20022;-86
2023/12/22 03:09:34;;;;;;;1.15;0.70;;;8.50;99.90;;;;;;4973412;28;20038;-88
2023/12/22 03:12:01;;;;;;;0.63;0.57;;;8.50;99.90;;;;;;4956861;28;20081;-87
2023/12/22 03:14:33;;;;;;;1.02;0.70;;;8.40;99.90;;;;;;4973061;28;20097;-87
2023/12/22 03:16:59;;;;;;;0.60;0.57;;;8.40;99.90;;;;;;4972909;28;20027;-89
2023/12/22 03:19:24;;;;;;;0.73;0.50;;;8.40;99.90;;;;;;4974289;28;20051;-88
2023/12/22 03:21:50;;;;;;;0.50;0.50;;;8.40;99.90;;;;;;4954402;28;20443;-89
2023/12/22 03:24:16;;;;;;;0.60;0.60;;;8.50;99.90;;;;;;4971281;28;20042;-88
2023/12/22 03:26:41;;;;;;;1.00;0.70;;;8.50;99.90;;;;;;4952971;28;20025;-88
2023/12/22 03:29:07;;;;;;;4.68;0.90;;;8.50;99.90;;;;;;4973420;28;20035;-87
2023/12/22 03:31:32;;;;;;;1.48;0.85;;;8.40;99.90;;;;;;4979735;28;20034;-87
2023/12/22 03:33:58;;;;;;;1.60;0.60;;;8.40;99.90;;;;;;4958971;28;20030;-88
2023/12/22 03:36:24;;;;;;;2.38;0.80;;;8.40;99.90;;;;;;4954157;28;20031;-88
2023/12/22 03:38:49;;;;;;;1.35;0.98;;;8.40;99.90;;;;;;4961997;28;20042;-88
2023/12/22 03:41:15;;;;;;;5.25;1.20;;;8.50;99.90;;;;;;4976225;28;20021;-88
2023/12/22 03:43:40;;;;;;;2.33;0.90;;;8.50;99.90;;;;;;4973681;28;20014;-88
2023/12/22 03:46:06;;;;;;;1.55;0.85;;;8.40;99.90;;;;;;4973297;28;20026;-89
2023/12/22 03:48:31;;;;;;;2.55;0.70;;;8.40;99.90;;;;;;4960441;28;20134;-87
2023/12/22 03:50:57;;;;;;;0.73;0.73;;;8.40;99.90;;;;;;4969084;28;20023;-87
2023/12/22 03:53:23;;;;;;;1.85;0.93;;;8.50;99.90;;;;;;4964159;28;20026;-89
2023/12/22 03:55:48;;;;;;;5.30;1.02;;;8.50;99.90;;;;;;4973660;28;20015;-89
2023/12/22 03:58:14;;;;;;;5.03;0.70;;;8.40;99.90;;;;;;4973417;28;20477;-89
2023/12/22 04:00:39;;;;;;;4.95;1.13;;;8.40;99.90;;;;;;4953019;28;20507;-87
2023/12/22 04:03:05;;;;;;;2.30;1.00;;;8.40;99.90;;;;;;4972920;28;20042;-89
2023/12/22 04:05:30;;;;;;;4.15;1.27;;;8.40;99.90;;;;;;4978465;28;20499;-88
2023/12/22 04:07:56;;;;;;;2.35;0.77;;;8.40;99.90;;;;;;4957620;28;20023;-88
2023/12/22 04:10:21;;;;;;;2.15;0.93;;;8.50;99.90;;;;;;4957526;28;20552;-87
2023/12/22 04:12:47;;;;;;;2.13;0.75;;;8.40;99.90;;;;;;4957429;28;20030;-88
2023/12/22 04:15:13;;;;;;;1.85;0.70;;;8.40;99.90;;;;;;4972630;28;20038;-87
2023/12/22 04:17:38;;;;;;;3.00;0.55;;;8.40;99.90;;;;;;4972270;28;20022;-89
2023/12/22 04:20:08;;;;;;;3.22;0.63;;;8.40;99.90;;;;;;4972025;28;20038;-84
2023/12/22 04:22:33;;;;;;;2.28;0.65;;;8.50;99.90;;;;;;4955684;28;20031;-88
2023/12/22 04:24:59;;;;;;;0.57;0.57;;;8.50;99.90;;;;;;4955086;28;20065;-89
2023/12/22 04:27:24;;;;;;;2.90;1.30;;;8.40;99.90;;;;;;4972734;28;20031;-87
2023/12/22 04:29:50;;;;;;;2.08;0.77;;;8.40;99.90;;;;;;4965337;28;20030;-90
2023/12/22 04:32:15;;;;;;;4.38;1.00;;;8.40;99.90;;;;;;4955156;28;20394;-87
2023/12/22 04:34:41;;;;;;;1.48;0.70;;;8.40;99.90;;;;;;4970966;28;20023;-88
2023/12/22 04:37:06;;;;;;;1.88;0.50;;;8.50;99.90;;;;;;4975326;28;20030;-87
2023/12/22 04:39:32;;;;;;;1.48;0.77;;;8.50;99.90;;;;;;4971696;28;20035;-87
2023/12/22 04:41:58;;;;;;;2.80;0.70;;;8.40;99.90;;;;;;4958038;28;20397;-88
2023/12/22 04:44:23;;;;;;;1.33;0.45;;;8.40;99.90;;;;;;4953696;28;20050;-89
2023/12/22 04:46:49;;;;;;;2.28;0.70;;;8.50;99.90;;;;;;4972512;28;20029;-89
2023/12/22 04:49:15;;;;;;;1.13;0.70;;;8.50;99.90;;;;;;4972066;28;20023;-88
2023/12/22 04:51:40;;;;;;;2.25;0.75;;;8.40;99.90;;;;;;4959600;28;20026;-88
2023/12/22 04:54:06;;;;;;;0.57;0.57;;;8.40;99.90;;;;;;4970695;28;20031;-89
2023/12/22 04:56:32;;;;;;;1.23;1.08;;;8.40;99.90;;;;;;4952429;28;20070;-88
2023/12/22 04:58:57;;;;;;;2.22;0.70;;;8.40;99.90;;;;;;4972429;28;20230;-89
2023/12/22 05:01:23;;;;;;;4.43;1.15;;;8.40;99.90;;;;;;4958766;28;20743;-89
2023/12/22 05:03:49;;;;;;;3.72;0.70;;;8.50;99.90;;;;;;4960697;28;20073;-88
2023/12/22 05:06:14;;;;;;;3.72;0.80;;;8.40;99.90;;;;;;4965736;28;20034;-88
2023/12/22 05:08:40;;;;;;;0.98;0.88;;;8.40;99.90;;;;;;4970690;28;20027;-87
2023/12/22 05:11:05;;;;;;;2.63;0.82;;;8.40;99.90;;;;;;4956730;28;20110;-89
2023/12/22 05:13:31;;;;;;;1.55;0.70;;;8.40;99.90;;;;;;4967478;28;20401;-87
2023/12/22 05:15:57;;;;;;;0.82;0.73;;;8.40;99.90;;;;;;4972367;28;20054;-89
2023/12/22 05:18:22;;;;;;;4.70;0.85;;;8.40;99.90;;;;;;4972050;28;20039;-87
2023/12/22 05:20:48;;;;;;;3.45;1.13;;;8.40;99.90;;;;;;4971340;28;20029;-89
2023/12/22 05:23:15;;;;;;;3.50;0.90;;;8.40;99.90;;;;;;4971959;28;20501;-87
2023/12/22 05:25:40;;;;;;;1.85;0.80;;;8.40;99.90;;;;;;4954943;28;20106;-86
2023/12/22 05:28:06;;;;;;;0.80;0.65;;;8.40;99.90;;;;;;4975776;28;20682;-89
2023/12/22 05:30:31;;;;;;;3.42;0.60;;;8.40;99.90;;;;;;4982517;28;20023;-87
2023/12/22 05:32:57;;;;;;;2.80;0.80;;;8.40;99.90;;;;;;4966076;28;20109;-89
2023/12/22 05:35:23;;;;;;;3.92;1.30;;;8.40;99.90;;;;;;4957217;28;20027;-87
2023/12/22 05:37:48;;;;;;;2.10;0.90;;;8.40;99.90;;;;;;4958706;28;20085;-87
2023/12/22 05:40:14;;;;;;;2.70;0.80;;;8.40;99.90;;;;;;4975444;28;20034;-88
2023/12/22 05:42:39;;;;;;;5.28;1.10;;;8.40;99.90;;;;;;4958782;28;20121;-87
2023/12/22 05:45:07;;;;;;;1.40;0.90;;;8.40;99.90;;;;;;4960912;28;20011;-88
2023/12/22 05:47:33;;;;;;;3.10;0.88;;;8.40;99.90;;;;;;4975775;28;20032;-89
2023/12/22 05:49:58;;;;;;;2.35;0.77;;;8.40;99.90;;;;;;4956001;28;20081;-89
2023/12/22 05:52:24;;;;;;;3.15;0.90;;;8.40;99.90;;;;;;4961940;28;20037;-87
2023/12/22 05:54:50;;;;;;;1.27;0.60;;;8.40;99.90;;;;;;4963715;28;20026;-89
2023/12/22 05:57:16;;;;;;;2.75;0.80;;;8.40;99.90;;;;;;4960071;28;20515;-89
2023/12/22 05:59:42;;;;;;;4.18;1.10;;;8.40;99.90;;;;;;4963803;28;20058;-88
2023/12/22 06:02:08;;;;;;;2.45;1.00;;;8.40;99.90;;;;;;4975252;28;20082;-87
2023/12/22 06:04:34;;;;;;;4.15;1.20;;;8.40;99.90;;;;;;4972760;28;20037;-88
2023/12/22 06:07:00;;;;;;;2.83;0.95;;;8.40;99.90;;;;;;4974995;28;20022;-90
2023/12/22 06:09:25;;;;;;;1.33;1.05;;;8.40;99.90;;;;;;4975080;28;20035;-86
2023/12/22 06:11:51;;;;;;;4.47;1.17;;;8.40;99.90;;;;;;4961044;28;20023;-89
2023/12/22 06:14:17;;;;;;;1.95;0.88;;;8.50;99.90;;;;;;4956629;28;20038;-87
2023/12/22 06:16:42;;;;;;;7.97;1.25;;;8.40;99.90;;;;;;4972313;28;20056;-89
2023/12/22 06:19:09;;;;;;;4.13;1.00;;;8.40;99.90;;;;;;4975174;28;20097;-88
2023/12/22 06:21:37;;;;;;;2.65;1.00;;;8.40;99.90;;;;;;4980449;28;20583;-87
2023/12/22 06:24:03;;;;;;;8.07;1.38;;;8.40;99.90;;;;;;4973776;28;20021;-87
2023/12/22 06:26:29;;;;;;;5.78;1.10;;;8.40;99.90;;;;;;4975378;28;20708;-89
2023/12/22 06:28:54;;;;;;;3.08;1.08;;;8.40;99.90;;;;;;4957318;28;20085;-88
2023/12/22 06:31:21;;;;;;;3.28;0.88;;;8.40;99.90;;;;;;4971427;28;20034;-88
2023/12/22 06:33:51;;;;;;;6.20;0.90;;;8.40;99.90;;;;;;4974996;28;20416;-88
2023/12/22 06:36:21;;;;;;;7.82;1.33;;;8.40;99.90;;;;;;4974706;28;20030;-89
2023/12/22 06:38:48;;;;;;;6.10;1.08;;;8.40;99.90;;;;;;4957582;28;20039;-88
2023/12/22 06:41:24;;;;;;;8.48;1.10;;;8.40;99.90;;;;;;4968644;28;20022;-88
2023/12/22 06:43:50;;;;;;;2.97;1.30;;;8.40;99.90;;;;;;4974305;28;20019;-88
2023/12/22 06:46:17;;;;;;;2.88;1.42;;;8.40;99.90;;;;;;4974482;28;20058;-88
2023/12/22 06:48:43;;;;;;;4.95;1.27;;;8.40;99.90;;;;;;4974624;28;20054;-88
2023/12/22 06:51:21;;;;;;;2.28;0.82;;;8.40;99.90;;;;;;4958905;28;20057;-88
2023/12/22 06:53:47;;;;;;;4.97;1.20;;;8.40;99.90;;;;;;4972351;28;20058;-86
2023/12/22 06:56:21;;;;;;;5.55;1.10;;;8.40;99.90;;;;;;4956854;28;20400;-86
2023/12/22 06:58:48;;;;;;;6.03;1.27;;;8.40;99.90;;;;;;4973286;28;20374;-88
2023/12/22 07:01:46;;;;;;;6.25;0.90;;;8.40;99.90;;;;;;4974181;28;20019;-88
2023/12/22 07:04:11;;;;;;;4.03;1.02;;;8.40;99.90;;;;;;4895705;29;20068;-88
2023/12/22 07:06:37;;;;;;;2.72;0.82;;;8.40;99.90;;;;;;4895799;29;20059;-90
2023/12/22 07:09:15;;;;;;;2.53;0.75;;;8.40;99.90;;;;;;4878556;29;20032;-88
2023/12/22 07:11:42;;;;;;;8.90;1.05;;;8.40;99.90;;;;;;4895677;29;20120;-88
2023/12/22 07:14:08;;;;;;;3.58;1.13;;;8.40;99.90;;;;;;4895502;29;20041;-86
2023/12/22 07:16:35;;;;;;;1.23;0.90;;;8.40;99.90;;;;;;4879963;29;20032;-88
2023/12/22 07:19:01;;;;;;;4.35;1.02;;;8.40;99.90;;;;;;4895739;29;20036;-88
2023/12/22 07:21:27;;;;;;;5.35;1.25;;;8.40;99.90;;;;;;4894949;29;20058;-88
2023/12/22 07:23:52;;;;;;;5.90;1.23;;;8.40;99.90;;;;;;4878475;29;20116;-87
2023/12/22 07:26:18;;;;;;;4.85;1.17;;;8.40;99.90;;;;;;4895225;29;20040;-88
2023/12/22 07:28:43;;;;;;;3.25;0.70;;;8.40;99.90;;;;;;4892935;29;20025;-87
2023/12/22 07:31:09;;;;;;;2.55;0.90;;;8.40;99.90;;;;;;4898340;29;20099;-89
2023/12/22 07:33:34;;;;;;;1.90;1.05;;;8.40;99.90;;;;;;4891687;29;20120;-87
2023/12/22 07:36:00;;;;;;;1.42;1.00;;;8.40;99.90;;;;;;4895137;29;20582;-88
2023/12/22 07:38:26;;;;;;;0.70;0.70;;;8.40;99.90;;;;;;4878860;29;20028;-88
2023/12/22 07:40:51;;;;;;;1.95;0.98;;;8.40;99.90;;;;;;4965530;28;20114;-87
2023/12/22 07:43:17;;;;;;;5.68;0.93;;;8.40;99.90;;;;;;4956749;28;20118;-88
2023/12/22 07:45:42;;;;;;;0.93;0.80;;;8.40;99.90;;;;;;4965678;28;20015;-89
2023/12/22 07:48:08;;;;;;;0.75;0.70;;;8.40;99.90;;;;;;4966459;28;20070;-88
2023/12/22 07:50:34;;;;;;;2.30;1.10;;;8.40;99.90;;;;;;4967570;28;20038;-88
2023/12/22 07:52:59;;;;;;;2.75;1.10;;;8.40;99.90;;;;;;4972932;28;20027;-89
2023/12/22 07:55:25;;;;;;;1.70;1.05;;;8.40;99.90;;;;;;4953405;28;20030;-89
2023/12/22 07:57:51;;;;;;;27.10;2.25;;;8.40;99.90;;;;;;4955722;28;20027;-90
2023/12/22 08:00:17;;;;;;;4.72;0.93;;;9.00;99.90;;;;;;4956426;28;20055;-89
2023/12/22 08:02:43;;;;;;;3.22;0.80;;;11.10;99.90;;;;;;4970630;28;20080;-88
2023/12/22 08:05:09;;;;;;;3.58;1.00;;;10.10;99.90;;;;;;4963068;28;20030;-88
2023/12/22 08:07:35;;;;;;;3.20;0.93;;;9.30;99.90;;;;;;4952420;29;20019;-88
2023/12/22 08:10:02;;;;;;;9.45;1.17;;;8.90;99.90;;;;;;4952107;28;20733;-89
2023/12/22 08:12:28;;;;;;;2.92;0.90;;;8.80;99.90;;;;;;4957383;28;20026;-89
2023/12/22 08:14:53;;;;;;;7.60;1.42;;;8.70;99.90;;;;;;4970296;28;20043;-86
2023/12/22 08:17:19;;;;;;;3.75;1.08;;;8.60;99.90;;;;;;4972351;28;20034;-88
2023/12/22 08:19:45;;;;;;;5.38;1.15;;;8.60;99.90;;;;;;4962879;28;20026;-88
2023/12/22 08:22:12;;;;;;;3.97;1.40;;;8.60;99.90;;;;;;4960447;28;20111;-88
2023/12/22 08:24:39;;;;;;;5.57;1.38;;;8.50;99.90;;;;;;4971589;28;20110;-90
2023/12/22 08:27:06;;;;;;;4.68;1.02;;;8.50;99.90;;;;;;4955646;28;20011;-88
2023/12/22 08:29:31;;;;;;;5.15;1.13;;;8.50;99.90;;;;;;4973039;28;20706;-88
2023/12/22 08:31:57;;;;;;;4.43;1.13;;;8.50;99.90;;;;;;4967598;28;20050;-88
2023/12/22 08:34:22;;;;;;;5.50;1.40;;;8.50;99.90;;;;;;4968937;28;20049;-86
2023/12/22 08:36:48;;;;;;;7.75;1.30;;;8.50;99.90;;;;;;4972020;28;20521;-87
2023/12/22 08:39:13;;;;;;;4.93;0.90;;;8.50;99.90;;;;;;4954654;28;20034;-86
2023/12/22 08:41:39;;;;;;;3.00;1.30;;;8.50;99.90;;;;;;4968953;28;20023;-90
2023/12/22 08:44:06;;;;;;;3.22;0.90;;;8.50;99.90;;;;;;4971727;28;20027;-87
2023/12/22 08:46:32;;;;;;;4.95;1.35;;;8.50;99.90;;;;;;4954606;28;20114;-87
2023/12/22 08:48:59;;;;;;;3.00;1.40;;;8.50;99.90;;;;;;4971917;28;20162;-88
2023/12/22 08:51:25;;;;;;;6.45;1.20;;;8.50;99.90;;;;;;4961636;28;20014;-89
2023/12/22 08:53:52;;;;;;;4.30;1.40;;;8.50;99.90;;;;;;4953821;28;20031;-89
2023/12/22 08:56:18;;;;;;;5.55;1.00;;;8.50;99.90;;;;;;4956299;28;20068;-88
2023/12/22 08:58:43;;;;;;;4.18;1.25;;;8.50;99.90;;;;;;4971737;28;20113;-88
2023/12/22 09:01:15;;;;;;;4.45;1.13;;;8.50;99.90;;;;;;4970859;28;20034;-88
2023/12/22 09:03:45;;;;;;;2.13;1.20;;;8.50;99.90;;;;;;4951872;28;20104;-88
2023/12/22 09:06:14;;;;;;;7.45;1.75;;;8.50;99.90;;;;;;4972045;28;20023;-87
2023/12/22 09:08:40;;;;;;;5.43;1.40;;;8.50;99.90;;;;;;4969147;28;20027;-87
2023/12/22 09:11:06;;;;;;;6.03;1.63;;;8.50;99.90;;;;;;4954361;28;20031;-88
2023/12/22 09:13:31;;;;;;;6.05;1.30;;;8.50;99.90;;;;;;4962325;28;20019;-88
2023/12/22 09:15:57;;;;;;;6.53;1.40;;;8.50;99.90;;;;;;4962430;28;20018;-88
2023/12/22 09:18:23;;;;;;;3.63;1.38;;;8.50;99.90;;;;;;4971499;28;20019;-88
2023/12/22 09:20:49;;;;;;;4.07;1.27;;;8.50;99.90;;;;;;4969666;28;20481;-87
2023/12/22 09:23:14;;;;;;;3.65;1.05;;;8.50;99.90;;;;;;4971702;28;20062;-88
2023/12/22 09:25:40;;;;;;;4.38;1.35;;;8.50;99.90;;;;;;4953968;28;20662;-88
2023/12/22 09:28:06;;;;;;;3.20;1.30;;;8.50;99.90;;;;;;4971157;28;20023;-87
2023/12/22 09:30:31;;;;;;;8.48;1.65;;;8.50;99.90;;;;;;4969336;28;20100;-87
2023/12/22 09:32:57;;;;;;;3.60;1.05;;;8.50;99.90;;;;;;4971126;28;20110;-87
2023/12/22 09:35:25;;;;;;;5.65;1.20;;;8.50;99.90;;;;;;4947632;29;20090;-88
2023/12/22 09:37:50;;;;;;;4.13;1.17;;;8.50;99.90;;;;;;4951411;28;20489;-88
2023/12/22 09:40:16;;;;;;;4.25;0.95;;;8.50;99.90;;;;;;4967512;28;20026;-90
2023/12/22 09:42:43;;;;;;;5.35;1.63;;;8.50;99.90;;;;;;4964799;28;20031;-89
2023/12/22 09:45:11;;;;;;;4.82;1.15;;;8.50;99.90;;;;;;4962347;28;20026;-88
2023/12/22 09:47:38;;;;;;;9.25;1.42;;;8.50;99.90;;;;;;4967718;28;20019;-87
2023/12/22 09:50:05;;;;;;;7.47;1.70;;;8.50;99.90;;;;;;4968856;28;20485;-88
2023/12/22 09:52:32;;;;;;;4.75;1.00;;;8.50;99.90;;;;;;4967129;28;20035;-88
2023/12/22 09:54:59;;;;;;;4.40;1.20;;;8.50;99.90;;;;;;4951389;28;20682;-87
2023/12/22 09:57:26;;;;;;;4.00;1.13;;;8.50;99.90;;;;;;4970919;28;20106;-87
2023/12/22 09:59:54;;;;;;;2.70;0.90;;;8.50;99.90;;;;;;4956831;28;20662;-88
2023/12/22 10:02:20;;;;;;;7.88;1.10;;;8.50;99.90;;;;;;4968592;28;20027;-86
2023/12/22 10:04:46;;;;;;;3.38;1.00;;;8.50;99.90;;;;;;4966571;28;20019;-88
2023/12/22 10:07:14;;;;;;;9.48;1.13;;;8.60;99.90;;;;;;4953850;28;20032;-88
2023/12/22 10:09:41;;;;;;;11.38;1.20;;;8.50;99.90;;;;;;4955891;28;20053;-88
2023/12/22 10:12:11;;;;;;;7.20;1.48;;;8.50;99.90;;;;;;4953268;28;20034;-87
2023/12/22 10:14:38;;;;;;;4.97;1.17;;;8.50;99.90;;;;;;4971765;28;20027;-86
2023/12/22 10:17:04;;;;;;;5.15;1.63;;;8.50;99.90;;;;;;4972291;28;20050;-86
2023/12/22 10:19:30;;;;;;;6.20;1.52;;;8.60;99.90;;;;;;4973698;28;20027;-88
2023/12/22 10:21:56;;;;;;;5.68;1.48;;;8.60;99.90;;;;;;4973738;28;20022;-87
2023/12/22 10:24:44;;;;;;;9.35;1.80;;;8.50;99.90;;;;;;4974010;28;20030;-87
2023/12/22 10:27:11;;;;;;;3.35;1.20;;;8.60;99.90;;;;;;4957609;28;20035;-88
2023/12/22 10:29:37;;;;;;;6.88;1.25;;;8.50;99.90;;;;;;4973474;28;20117;-88
2023/12/22 10:32:04;;;;;;;1.40;0.90;;;8.60;99.90;;;;;;4959371;28;20029;-87
2023/12/22 10:34:30;;;;;;;4.18;1.17;;;8.60;99.90;;;;;;4954230;28;20655;-89
2023/12/22 10:36:57;;;;;;;4.97;1.17;;;8.50;99.90;;;;;;4974065;28;20109;-87
2023/12/22 10:39:22;;;;;;;8.93;1.33;;;8.60;99.90;;;;;;4956245;28;20026;-88
2023/12/22 10:41:51;;;;;;;4.03;1.13;;;8.50;99.90;;;;;;4961144;28;20025;-88
2023/12/22 10:44:17;;;;;;;3.30;1.00;;;8.60;99.90;;;;;;4973737;28;20110;-87
2023/12/22 10:46:43;;;;;;;2.15;1.15;;;8.60;99.90;;;;;;4973619;28;20011;-88
2023/12/22 10:49:09;;;;;;;6.28;1.17;;;8.60;99.90;;;;;;4973735;28;20077;-86
2023/12/22 10:51:34;;;;;;;5.13;1.00;;;8.50;99.90;;;;;;4973422;28;20038;-87
2023/12/22 10:54:00;;;;;;;5.70;1.17;;;8.60;99.90;;;;;;4967823;28;20026;-86
2023/12/22 10:56:26;;;;;;;4.03;0.82;;;8.50;99.90;;;;;;4956392;28;20019;-87
2023/12/22 10:58:53;;;;;;;4.00;1.10;;;8.50;99.90;;;;;;4973624;28;20033;-87
2023/12/22 11:01:21;;;;;;;5.15;1.13;;;8.60;99.90;;;;;;4971578;28;20129;-87
2023/12/22 11:03:50;;;;;;;6.30;2.20;;;8.60;99.90;;;;;;4973195;28;20031;-87
2023/12/22 11:06:16;;;;;;;5.43;1.50;;;8.50;99.90;;;;;;4955854;28;20027;-88
2023/12/22 11:08:44;;;;;;;4.57;1.13;;;8.50;99.90;;;;;;4972785;28;20022;-88
2023/12/22 11:11:32;;;;;;;2.90;1.00;;;8.50;99.90;;;;;;4958040;28;20110;-88
2023/12/22 11:14:00;;;;;;;1.48;1.05;;;8.60;99.90;;;;;;4969543;28;20015;-87
2023/12/22 11:16:28;;;;;;;8.07;0.93;;;8.60;99.90;;;;;;4955615;28;20058;-88
2023/12/22 11:18:55;;;;;;;3.33;1.42;;;8.50;99.90;;;;;;4970725;28;20038;-88
2023/12/22 11:21:25;;;;;;;2.72;1.35;;;8.50;99.90;;;;;;4955272;28;20035;-87
2023/12/22 11:23:52;;;;;;;7.65;1.20;;;8.60;99.90;;;;;;4971779;28;20034;-87
2023/12/22 11:26:18;;;;;;;3.67;1.23;;;8.60;99.90;;;;;;4968212;28;20031;-87
2023/12/22 11:28:46;;;;;;;6.35;1.25;;;8.50;99.90;;;;;;4959481;28;20019;-88
2023/12/22 11:31:12;;;;;;;6.63;1.15;;;8.60;99.90;;;;;;4972344;28;20102;-88
2023/12/22 11:33:42;;;;;;;4.53;1.13;;;8.60;99.90;;;;;;4957066;28;20026;-89
2023/12/22 11:36:09;;;;;;;9.13;1.25;;;8.50;99.90;;;;;;4957298;28;20019;-88
2023/12/22 11:38:35;;;;;;;5.05;1.58;;;8.50;99.90;;;;;;4953173;28;20039;-88
2023/12/22 11:41:01;;;;;;;5.78;1.73;;;8.60;99.90;;;;;;4972306;28;20037;-87
2023/12/22 11:43:28;;;;;;;1.83;1.10;;;8.50;99.90;;;;;;4970997;28;20481;-87
2023/12/22 11:45:53;;;;;;;2.15;0.75;;;8.50;99.90;;;;;;4972797;28;20022;-87
2023/12/22 11:48:20;;;;;;;2.65;1.17;;;8.50;99.90;;;;;;4968302;28;20042;-87
2023/12/22 11:50:46;;;;;;;3.00;0.95;;;8.50;99.90;;;;;;4967458;28;20053;-86
2023/12/22 11:53:25;;;;;;;6.57;1.15;;;8.50;99.90;;;;;;4972178;28;20046;-87
2023/12/22 11:56:08;;;;;;;2.25;0.73;;;8.50;99.90;;;;;;4972034;28;20034;-87
2023/12/22 11:58:52;;;;;;;2.50;1.30;;;8.50;99.90;;;;;;4970576;28;20023;-88
2023/12/22 12:01:19;;;;;;;3.28;1.08;;;8.50;99.90;;;;;;4966202;28;20034;-87
2023/12/22 12:03:49;;;;;;;3.35;1.27;;;8.50;99.90;;;;;;4957072;28;20023;-88
2023/12/22 12:06:23;;;;;;;0.80;0.80;;;8.50;99.90;;;;;;4968551;28;20055;-87
2023/12/22 12:08:49;;;;;;;2.70;1.00;;;8.50;99.90;;;;;;4972263;28;20154;-87
2023/12/22 12:11:15;;;;;;;2.65;1.00;;;8.50;99.90;;;;;;4956305;28;20495;-87
2023/12/22 12:13:44;;;;;;;2.05;0.73;;;8.50;99.90;;;;;;4955703;28;20085;-86
2023/12/22 12:16:11;;;;;;;4.00;0.82;;;8.50;99.90;;;;;;4971767;28;20026;-87
2023/12/22 12:18:37;;;;;;;1.70;0.90;;;8.50;99.90;;;;;;4971779;28;20041;-88
2023/12/22 12:21:06;;;;;;;6.15;1.10;;;8.50;99.90;;;;;;4954498;28;20730;-87
2023/12/22 12:23:32;;;;;;;2.58;0.68;;;8.50;99.90;;;;;;4958123;28;20505;-88
2023/12/22 12:25:58;;;;;;;3.28;1.30;;;8.50;99.90;;;;;;4973455;28;20039;-90
2023/12/22 12:28:32;;;;;;;2.72;0.80;;;8.70;99.90;;;;;;4973604;28;20485;-89
2023/12/22 12:31:08;;;;;;;8.85;1.45;;;8.60;99.90;;;;;;4974064;28;20022;-91
2023/12/22 12:33:35;;;;;;;2.72;0.90;;;8.60;99.90;;;;;;4973563;28;20158;-91
2023/12/22 12:36:04;;;;;;;3.83;1.08;;;8.50;99.90;;;;;;4973076;28;20035;-91
2023/12/22 12:38:53;;;;;;;0.80;0.80;;;8.50;99.90;;;;;;4964252;28;20750;-92
2023/12/22 12:41:35;;;;;;;2.33;0.95;;;8.60;99.90;;;;;;4970757;28;20041;-90
2023/12/22 12:44:03;;;;;;;4.32;0.90;;;8.50;99.90;;;;;;4956156;28;20089;-90
2023/12/22 12:46:39;;;;;;;3.13;1.05;;;8.50;99.90;;;;;;4972452;28;20031;-91
2023/12/22 12:49:06;;;;;;;5.53;0.90;;;8.50;99.90;;;;;;4973488;28;20023;-90
2023/12/22 12:51:46;;;;;;;3.80;1.30;;;8.50;99.90;;;;;;4969607;28;20019;-90
2023/12/22 12:54:13;;;;;;;1.70;1.08;;;8.60;99.90;;;;;;4959097;28;20580;-89
2023/12/22 12:56:43;;;;;;;0.65;0.65;;;8.50;99.90;;;;;;4973608;28;20027;-90